Time;durP1;ratioP1;P1;durP2;ratioP2;P2;SDS_P1;SDS_P2;PMS_P1;PMS_P2;Temp;Humidity;BMP_temperature;BMP_pressure;BME280_temperature;BME280_humidity;BME280_pressure;Samples;Min_cycle;Max_cycle;Signal;HPM_P1;HPM_P2
2022/11/29 05:57:21;;;;;;;;;0.00;0.00;;;;;;;;5039772;28;44639;-96
2022/11/29 05:59:48;;;;;;;;;0.00;0.00;;;;;;;;5024585;28;44675;-96
2022/11/29 06:02:14;;;;;;;;;0.00;0.00;;;;;;;;5018994;28;45038;-96
2022/11/29 06:04:53;;;;;;;;;0.00;0.00;;;;;;;;5019145;28;45284;-96
2022/11/29 06:07:32;;;;;;;;;0.00;0.00;;;;;;;;5021990;28;44382;-96
2022/11/29 06:10:24;;;;;;;;;0.00;0.00;;;;;;;;5022327;28;44739;-96
2022/11/29 06:12:59;;;;;;;;;0.00;0.00;;;;;;;;5018262;28;45112;-96
2022/11/29 06:15:37;;;;;;;;;0.00;0.00;;;;;;;;5020672;28;44601;-96
2022/11/29 06:18:17;;;;;;;;;0.00;0.00;;;;;;;;5022392;28;44593;-96
2022/11/29 06:20:42;;;;;;;;;0.00;0.00;;;;;;;;5024549;28;45244;-96
2022/11/29 06:23:11;;;;;;;;;0.00;0.00;;;;;;;;5023745;28;44581;-96
2022/11/29 06:25:56;;;;;;;;;0.00;0.00;;;;;;;;5024532;28;44681;-96
2022/11/29 06:28:28;;;;;;;;;0.00;0.00;;;;;;;;5022870;28;44757;-96
2022/11/29 06:30:59;;;;;;;;;0.00;0.00;;;;;;;;5037664;28;44643;-96
2022/11/29 06:33:29;;;;;;;;;0.00;0.00;;;;;;;;5036544;28;45115;-96
2022/11/29 06:36:34;;;;;;;;;0.00;0.00;;;;;;;;5037924;28;45779;-96
2022/11/29 06:38:59;;;;;;;;;0.00;0.00;;;;;;;;4964119;28;44735;-96
2022/11/29 06:41:25;;;;;;;;;0.00;0.00;;;;;;;;4970358;28;46061;-96
2022/11/29 06:43:50;;;;;;;;;0.00;0.00;;;;;;;;4959016;28;44904;-96
2022/11/29 06:46:34;;;;;;;;;0.00;0.00;;;;;;;;4958943;28;44788;-96
2022/11/29 06:48:59;;;;;;;;;0.00;0.00;;;;;;;;4958983;28;44674;-96
2022/11/29 06:51:30;;;;;;;;;0.00;0.00;;;;;;;;4941262;28;44812;-96
2022/11/29 06:54:14;;;;;;;;;0.00;0.00;;;;;;;;4957126;28;45175;-96
2022/11/29 06:56:45;;;;;;;;;0.00;0.00;;;;;;;;4941582;28;44660;-96
2022/11/29 07:04:20;;;;;;;;;0.00;0.00;;;;;;;;5072295;28;45796;-96
2022/11/29 07:07:05;;;;;;;;;0.00;0.00;;;;;;;;5055698;28;44856;-96
2022/11/29 07:09:35;;;;;;;;;0.00;0.00;;;;;;;;5038445;28;45199;-96
2022/11/29 07:12:21;;;;;;;;;0.00;0.00;;;;;;;;5038174;28;44785;-96
2022/11/29 07:14:49;;;;;;;;;0.00;0.00;;;;;;;;5078199;28;44983;-96
2022/11/29 07:17:21;;;;;;;;;0.00;0.00;;;;;;;;5059611;28;44978;-96
2022/11/29 07:20:07;;;;;;;;;0.00;0.00;;;;;;;;5067621;28;44172;-96
2022/11/29 07:22:52;;;;;;;;;0.00;0.00;;;;;;;;5025119;28;44430;-96
2022/11/29 07:25:18;;;;;;;;;0.00;0.00;;;;;;;;5025974;28;45236;-96
2022/11/29 07:27:53;;;;;;;;;0.00;0.00;;;;;;;;5043234;28;45040;-96
2022/11/29 07:30:19;;;;;;;;;0.00;0.00;;;;;;;;5020299;28;45397;-96
2022/11/29 07:32:53;;;;;;;;;0.00;0.00;;;;;;;;5005527;28;44616;-96
2022/11/29 07:35:32;;;;;;;;;0.00;0.00;;;;;;;;5018542;28;45370;-96
2022/11/29 07:38:13;;;;;;;;;0.00;0.00;;;;;;;;4995348;28;45609;-93
2022/11/29 07:40:44;;;;;;;;;0.00;0.00;;;;;;;;5009398;28;45270;-94
2022/11/29 07:43:45;;;;;;;;;0.00;0.00;;;;;;;;5026215;28;45569;-93
2022/11/29 07:46:10;;;;;;;;;0.00;0.00;;;;;;;;4938414;28;45192;-94
2022/11/29 07:48:37;;;;;;;;;0.00;0.00;;;;;;;;4925580;28;47630;-93
2022/11/29 07:53:40;;;;;;;;;0.00;0.00;;;;;;;;5142205;22;44848;-94
2022/11/29 07:56:05;;;;;;;;;0.00;0.00;;;;;;;;5086524;27;45652;-95
2022/11/29 07:58:31;;;;;;;;;0.00;0.00;;;;;;;;5097211;27;45208;-96
2022/11/29 08:00:56;;;;;;;;;1.67;1.67;;;;;;;;5090035;27;45297;-95
2022/11/29 08:03:21;;;;;;;;;0.00;0.00;;;;;;;;5081284;27;45518;-95
2022/11/29 08:05:46;;;;;;;;;0.00;0.00;;;;;;;;5081593;27;45294;-95
2022/11/29 08:08:12;;;;;;;;;0.00;0.00;;;;;;;;5082802;27;45234;-95
2022/11/29 08:10:37;;;;;;;;;0.00;0.00;;;;;;;;5079876;27;45438;-95
2022/11/29 08:13:02;;;;;;;;;0.00;0.00;;;;;;;;5094841;27;45567;-89
2022/11/29 08:15:28;;;;;;;;;0.00;0.00;;;;;;;;5078366;27;45586;-88
2022/11/29 08:17:53;;;;;;;;;0.00;0.00;;;;;;;;5096534;27;45346;-92
2022/11/29 08:20:18;;;;;;;;;0.00;0.00;;;;;;;;5077329;27;45664;-93
2022/11/29 08:22:43;;;;;;;;;0.00;0.00;;;;;;;;5094586;27;45614;-94
2022/11/29 08:25:09;;;;;;;;;0.00;0.00;;;;;;;;5078337;27;45256;-94
2022/11/29 08:27:35;;;;;;;;;0.00;0.00;;;;;;;;5077643;27;47092;-94
2022/11/29 08:30:00;;;;;;;;;15.00;15.00;;;;;;;;5078547;27;45732;-95
2022/11/29 08:32:26;;;;;;;;;0.00;0.00;;;;;;;;5080959;27;45237;-90
2022/11/29 08:34:51;;;;;;;;;0.00;0.00;;;;;;;;5095232;27;45342;-87
2022/11/29 08:37:17;;;;;;;;;0.00;0.00;;;;;;;;5077285;27;47540;-93
2022/11/29 08:39:42;;;;;;;;;0.00;0.00;;;;;;;;5081118;27;45315;-93
2022/11/29 08:42:07;;;;;;;;;0.00;0.00;;;;;;;;5063345;27;45337;-95
2022/11/29 08:44:32;;;;;;;;;0.00;0.00;;;;;;;;5100263;27;45233;-96
2022/11/29 08:50:00;;;;;;;;;0.00;0.00;;;;;;;;5093569;27;45044;-89
2022/11/29 08:55:10;;;;;;;;;0.00;0.00;;;;;;;;5104694;27;44968;-95
2022/11/29 08:57:35;;;;;;;;;1.00;1.00;;;;;;;;5242031;22;46092;-95
2022/11/29 09:00:00;;;;;;;;;0.00;0.00;;;;;;;;5108353;27;45283;-88
2022/11/29 09:02:25;;;;;;;;;0.00;0.00;;;;;;;;5095719;27;45350;-87
2022/11/29 09:04:51;;;;;;;;;1.00;1.00;;;;;;;;5107634;27;45314;-88
2022/11/29 09:07:16;;;;;;;;;6.67;6.67;;;;;;;;5101671;27;46403;-88
2022/11/29 09:09:41;;;;;;;;;0.00;0.00;;;;;;;;5095384;27;45659;-90
2022/11/29 09:12:07;;;;;;;;;0.00;0.00;;;;;;;;5098437;27;46143;-93
2022/11/29 09:14:33;;;;;;;;;0.00;0.00;;;;;;;;5097294;27;45322;-91
2022/11/29 09:16:58;;;;;;;;;0.00;0.00;;;;;;;;5101941;27;46948;-89
2022/11/29 09:19:23;;;;;;;;;0.00;0.00;;;;;;;;5095312;27;45705;-91
2022/11/29 09:21:48;;;;;;;;;0.00;0.00;;;;;;;;5099773;27;45442;-89
2022/11/29 09:24:14;;;;;;;;;0.00;0.00;;;;;;;;5098229;27;45290;-94
2022/11/29 09:26:41;;;;;;;;;0.00;0.00;;;;;;;;5104780;27;47253;-93
2022/11/29 09:29:06;;;;;;;;;0.00;0.00;;;;;;;;5093269;27;45282;-93
2022/11/29 09:31:32;;;;;;;;;0.00;0.00;;;;;;;;5096314;27;45422;-89
2022/11/29 09:33:57;;;;;;;;;0.00;0.00;;;;;;;;5098863;27;45443;-88
2022/11/29 09:36:23;;;;;;;;;0.00;0.00;;;;;;;;5096343;27;45476;-90
2022/11/29 09:38:48;;;;;;;;;0.00;0.00;;;;;;;;5094633;27;45578;-84
2022/11/29 09:41:25;;;;;;;;;0.00;0.00;;;;;;;;5094922;27;45709;-86
2022/11/29 09:43:50;;;;;;;;;0.00;0.00;;;;;;;;5086000;27;45338;-86
2022/11/29 09:46:31;;;;;;;;;0.00;0.00;;;;;;;;5088833;27;46608;-85
2022/11/29 09:49:15;;;;;;;;;0.00;0.00;;;;;;;;5100590;27;45499;-86
2022/11/29 09:51:47;;;;;;;;;0.00;0.00;;;;;;;;5100408;27;45726;-86
2022/11/29 09:54:23;;;;;;;;;0.00;0.00;;;;;;;;5095590;27;45489;-88
2022/11/29 09:56:50;;;;;;;;;0.00;0.00;;;;;;;;5101695;27;45407;-87
2022/11/29 09:59:22;;;;;;;;;0.00;0.00;;;;;;;;5095332;27;45900;-87
2022/11/29 10:01:53;;;;;;;;;1.00;1.00;;;;;;;;5091286;27;45422;-92
2022/11/29 10:04:20;;;;;;;;;0.00;0.00;;;;;;;;5095780;27;45571;-87
2022/11/29 10:06:51;;;;;;;;;0.00;0.00;;;;;;;;5095193;27;45704;-90
2022/11/29 10:09:21;;;;;;;;;0.00;0.00;;;;;;;;5093803;27;45841;-89
2022/11/29 10:11:51;;;;;;;;;0.00;0.00;;;;;;;;5095320;27;45426;-88
2022/11/29 10:14:21;;;;;;;;;0.00;0.00;;;;;;;;5087174;27;48411;-88
2022/11/29 10:16:51;;;;;;;;;0.00;0.00;;;;;;;;5083104;27;47447;-85
2022/11/29 10:19:32;;;;;;;;;1.00;1.00;;;;;;;;5092343;27;45461;-95
2022/11/29 10:22:12;;;;;;;;;0.00;0.00;;;;;;;;5103088;27;46612;-95
2022/11/29 10:24:38;;;;;;;;;0.00;0.00;;;;;;;;5096139;27;45639;-92
2022/11/29 10:27:11;;;;;;;;;0.00;0.00;;;;;;;;5095591;27;48265;-95
2022/11/29 10:29:37;;;;;;;;;0.00;0.00;;;;;;;;5088794;27;45379;-94
2022/11/29 10:32:07;;;;;;;;;0.00;0.00;;;;;;;;5098405;27;45331;-93
2022/11/29 10:34:33;;;;;;;;;0.00;0.00;;;;;;;;5098749;27;45440;-94
2022/11/29 10:37:00;;;;;;;;;0.00;0.00;;;;;;;;5103067;27;46587;-94
2022/11/29 10:39:56;;;;;;;;;0.00;0.00;;;;;;;;5092802;27;45440;-93
2022/11/29 10:45:15;;;;;;;;;5.33;5.33;;;;;;;;5099369;27;43995;-94
2022/11/29 10:47:41;;;;;;;;;0.00;0.00;;;;;;;;5097961;27;44447;-93
2022/11/29 10:50:06;;;;;;;;;0.00;0.00;;;;;;;;5096030;27;44784;-91
2022/11/29 10:52:32;;;;;;;;;0.00;0.00;;;;;;;;5098919;27;44328;-92
2022/11/29 10:54:58;;;;;;;;;0.00;0.00;;;;;;;;5097367;27;44932;-91
2022/11/29 10:57:23;;;;;;;;;3.00;3.00;;;;;;;;5094152;27;46978;-93
2022/11/29 10:59:57;;;;;;;;;0.00;0.00;;;;;;;;5100477;27;42963;-92
2022/11/29 11:02:23;;;;;;;;;0.00;0.00;;;;;;;;5105049;27;43776;-91
2022/11/29 11:04:48;;;;;;;;;0.00;0.00;;;;;;;;5099310;27;42017;-92
2022/11/29 11:07:28;;;;;;;;;0.00;0.00;;;;;;;;5101549;27;41799;-92
2022/11/29 11:09:55;;;;;;;;;0.00;0.00;;;;;;;;5098106;27;43346;-94
2022/11/29 11:12:26;;;;;;;;;0.00;0.00;;;;;;;;5100306;27;44497;-95
2022/11/29 11:14:53;;;;;;;;;0.00;0.00;;;;;;;;5099419;27;44185;-96
2022/11/29 11:17:26;;;;;;;;;0.00;0.00;;;;;;;;5100709;27;44699;-90
2022/11/29 11:19:56;;;;;;;;;0.00;0.00;;;;;;;;5109361;27;44743;-95
2022/11/29 11:22:22;;;;;;;;;1.00;1.00;;;;;;;;5108722;27;45387;-96
2022/11/29 11:24:55;;;;;;;;;0.00;0.00;;;;;;;;5107798;27;44434;-92
2022/11/29 11:27:30;;;;;;;;;0.67;0.67;;;;;;;;5100293;27;44833;-94
2022/11/29 11:29:56;;;;;;;;;3.33;3.33;;;;;;;;5101122;27;44611;-92
2022/11/29 11:32:22;;;;;;;;;0.00;0.00;;;;;;;;5102891;27;44466;-96
2022/11/29 11:34:51;;;;;;;;;0.00;0.00;;;;;;;;5097671;27;43906;-89
2022/11/29 11:37:19;;;;;;;;;0.00;0.00;;;;;;;;5097584;27;44618;-93
2022/11/29 11:39:46;;;;;;;;;0.00;0.00;;;;;;;;5098333;27;43529;-93
2022/11/29 11:44:59;;;;;;;;;0.00;0.00;;;;;;;;5103170;27;43787;-93
2022/11/29 11:47:26;;;;;;;;;0.00;0.00;;;;;;;;5097567;27;44809;-91
2022/11/29 11:50:15;;;;;;;;;0.00;0.00;;;;;;;;5096424;27;44852;-92
2022/11/29 11:52:43;;;;;;;;;0.00;0.00;;;;;;;;5085456;27;44607;-94
2022/11/29 11:55:17;;;;;;;;;9.00;9.00;;;;;;;;5088456;27;44847;-94
2022/11/29 11:57:43;;;;;;;;;0.00;0.00;;;;;;;;5095338;27;45863;-93
2022/11/29 12:00:28;;;;;;;;;6.00;6.00;;;;;;;;5088733;27;45742;-92
2022/11/29 12:02:54;;;;;;;;;0.00;0.00;;;;;;;;5096122;27;45239;-92
2022/11/29 12:05:19;;;;;;;;;0.00;0.00;;;;;;;;5091852;27;45162;-95
2022/11/29 12:07:50;;;;;;;;;0.00;0.00;;;;;;;;5097692;27;47096;-96
2022/11/29 12:10:22;;;;;;;;;0.00;0.00;;;;;;;;5098484;27;45435;-93
2022/11/29 12:12:48;;;;;;;;;0.00;0.00;;;;;;;;5094319;27;45328;-91
2022/11/29 12:15:17;;;;;;;;;0.00;0.00;;;;;;;;5095049;27;45163;-90
2022/11/29 12:17:47;;;;;;;;;0.00;0.00;;;;;;;;5096932;27;45373;-93
2022/11/29 12:20:13;;;;;;;;;0.00;0.00;;;;;;;;5097324;27;45436;-92
2022/11/29 12:22:42;;;;;;;;;0.00;0.00;;;;;;;;5095194;27;45331;-86
2022/11/29 12:25:12;;;;;;;;;0.00;0.00;;;;;;;;5107004;27;45716;-90
2022/11/29 12:27:37;;;;;;;;;0.00;0.00;;;;;;;;5100776;27;46805;-92
2022/11/29 12:30:09;;;;;;;;;0.00;0.00;;;;;;;;5101487;27;45321;-93
2022/11/29 12:32:46;;;;;;;;;0.00;0.00;;;;;;;;5100024;27;45383;-94
2022/11/29 12:35:28;;;;;;;;;0.00;0.00;;;;;;;;5100142;27;45207;-91
2022/11/29 12:38:06;;;;;;;;;0.00;0.00;;;;;;;;5115733;27;45267;-92
2022/11/29 12:40:46;;;;;;;;;3.00;3.00;;;;;;;;5111381;27;46324;-90
2022/11/29 12:43:11;;;;;;;;;0.00;0.00;;;;;;;;5106672;27;45299;-92
2022/11/29 12:45:45;;;;;;;;;0.00;0.00;;;;;;;;5097865;27;45521;-90
2022/11/29 12:48:16;;;;;;;;;0.00;0.00;;;;;;;;5096685;27;46316;-91
2022/11/29 12:50:41;;;;;;;;;0.00;0.00;;;;;;;;5110146;27;45069;-89
2022/11/29 12:53:12;;;;;;;;;0.00;0.00;;;;;;;;5114967;27;43852;-91
2022/11/29 12:55:41;;;;;;;;;0.00;0.00;;;;;;;;5107084;27;44455;-90
2022/11/29 12:58:09;;;;;;;;;0.00;0.00;;;;;;;;5102067;27;46713;-91
2022/11/29 13:00:57;;;;;;;;;0.00;0.00;;;;;;;;5102819;27;45416;-90
2022/11/29 13:03:28;;;;;;;;;0.00;0.00;;;;;;;;5099467;27;45292;-91
2022/11/29 13:05:56;;;;;;;;;0.00;0.00;;;;;;;;5097397;27;45043;-91
2022/11/29 13:08:40;;;;;;;;;0.00;0.00;;;;;;;;5091489;27;46893;-92
2022/11/29 13:11:08;;;;;;;;;0.00;0.00;;;;;;;;5094932;27;45240;-90
2022/11/29 13:13:33;;;;;;;;;0.00;0.00;;;;;;;;5098966;27;45221;-92
2022/11/29 13:16:17;;;;;;;;;0.00;0.00;;;;;;;;5097198;27;45157;-91
2022/11/29 13:18:42;;;;;;;;;0.00;0.00;;;;;;;;5098512;27;46624;-91
2022/11/29 13:21:15;;;;;;;;;0.00;0.00;;;;;;;;5095283;27;45673;-90
2022/11/29 13:23:45;;;;;;;;;0.00;0.00;;;;;;;;5097791;27;45373;-91
2022/11/29 13:26:11;;;;;;;;;0.00;0.00;;;;;;;;5098393;27;44573;-91
2022/11/29 13:28:38;;;;;;;;;0.00;0.00;;;;;;;;5095686;27;44736;-90
2022/11/29 13:31:05;;;;;;;;;0.00;0.00;;;;;;;;5096850;27;44687;-90
2022/11/29 13:33:49;;;;;;;;;0.00;0.00;;;;;;;;5098699;27;44849;-91
2022/11/29 13:36:15;;;;;;;;;0.00;0.00;;;;;;;;5096464;27;44988;-90
2022/11/29 13:38:55;;;;;;;;;0.00;0.00;;;;;;;;5098929;27;45105;-91
2022/11/29 13:41:29;;;;;;;;;0.00;0.00;;;;;;;;5091854;27;45444;-91
2022/11/29 13:44:03;;;;;;;;;0.00;0.00;;;;;;;;5098059;27;45191;-92
2022/11/29 13:46:35;;;;;;;;;0.00;0.00;;;;;;;;5101630;27;44990;-91
2022/11/29 13:49:00;;;;;;;;;0.00;0.00;;;;;;;;5141316;27;8798;-91
2022/11/29 13:51:25;;;;;;;;;0.00;0.00;;;;;;;;5104090;27;45217;-91
2022/11/29 13:53:51;;;;;;;;;0.00;0.00;;;;;;;;5099642;27;44891;-92
2022/11/29 13:56:30;;;;;;;;;0.00;0.00;;;;;;;;5102274;27;44786;-92
2022/11/29 13:58:57;;;;;;;;;0.00;0.00;;;;;;;;5101719;27;43887;-92
2022/11/29 14:01:25;;;;;;;;;0.00;0.00;;;;;;;;5098061;27;43838;-92
2022/11/29 14:03:59;;;;;;;;;0.00;0.00;;;;;;;;5099642;27;43722;-92
2022/11/29 14:06:35;;;;;;;;;0.00;0.00;;;;;;;;5095545;27;43046;-88
2022/11/29 14:09:12;;;;;;;;;0.00;0.00;;;;;;;;5100630;27;43949;-93
2022/11/29 14:11:47;;;;;;;;;0.00;0.00;;;;;;;;5101033;27;42799;-91
2022/11/29 14:14:15;;;;;;;;;0.00;0.00;;;;;;;;5101741;27;44528;-91
2022/11/29 14:16:40;;;;;;;;;0.00;0.00;;;;;;;;5100955;27;43171;-91
2022/11/29 14:19:08;;;;;;;;;0.00;0.00;;;;;;;;5102047;27;44724;-90
2022/11/29 14:21:52;;;;;;;;;0.00;0.00;;;;;;;;5096879;27;43963;-91
2022/11/29 14:24:36;;;;;;;;;0.00;0.00;;;;;;;;5099280;27;44295;-90
2022/11/29 14:27:04;;;;;;;;;0.00;0.00;;;;;;;;5108608;27;36831;-92
2022/11/29 14:29:48;;;;;;;;;0.00;0.00;;;;;;;;5106137;27;37036;-91
2022/11/29 14:32:40;;;;;;;;;0.00;0.00;;;;;;;;5104198;27;36624;-91
2022/11/29 14:35:09;;;;;;;;;0.00;0.00;;;;;;;;5111488;27;37295;-90
2022/11/29 14:37:50;;;;;;;;;0.00;0.00;;;;;;;;5097703;27;40782;-90
2022/11/29 14:40:23;;;;;;;;;0.00;0.00;;;;;;;;5091959;27;42241;-92
2022/11/29 14:42:48;;;;;;;;;0.00;0.00;;;;;;;;5097172;27;43037;-91
2022/11/29 14:45:25;;;;;;;;;0.00;0.00;;;;;;;;5094625;27;44446;-91
2022/11/29 14:47:50;;;;;;;;;0.00;0.00;;;;;;;;5096274;27;44517;-91
2022/11/29 14:50:39;;;;;;;;;0.00;0.00;;;;;;;;5100953;27;46637;-91
2022/11/29 14:53:05;;;;;;;;;0.00;0.00;;;;;;;;5082475;27;44794;-91
2022/11/29 14:55:34;;;;;;;;;0.00;0.00;;;;;;;;5095305;27;44599;-91
2022/11/29 14:57:59;;;;;;;;;0.00;0.00;;;;;;;;5095699;27;44000;-91
2022/11/29 15:00:43;;;;;;;;;0.00;0.00;;;;;;;;5097740;27;44545;-90
2022/11/29 15:03:11;;;;;;;;;0.00;0.00;;;;;;;;5092820;27;43681;-91
2022/11/29 15:05:39;;;;;;;;;0.00;0.00;;;;;;;;5095396;27;44849;-92
2022/11/29 15:08:23;;;;;;;;;0.00;0.00;;;;;;;;5113508;27;44833;-91
2022/11/29 15:10:51;;;;;;;;;0.00;0.00;;;;;;;;5094430;27;45034;-91
2022/11/29 15:13:22;;;;;;;;;0.00;0.00;;;;;;;;5095582;27;44654;-90
2022/11/29 15:16:06;;;;;;;;;0.00;0.00;;;;;;;;5093824;27;44757;-90
2022/11/29 15:18:41;;;;;;;;;0.00;0.00;;;;;;;;5096462;27;44767;-92
2022/11/29 15:21:06;;;;;;;;;0.00;0.00;;;;;;;;5086671;27;45689;-89
2022/11/29 15:23:39;;;;;;;;;0.00;0.00;;;;;;;;5094668;27;45413;-90
2022/11/29 15:26:04;;;;;;;;;0.00;0.00;;;;;;;;5098606;27;44671;-92
2022/11/29 15:28:29;;;;;;;;;0.00;0.00;;;;;;;;5090847;27;44939;-90
2022/11/29 15:31:05;;;;;;;;;0.00;0.00;;;;;;;;5096335;27;46419;-90
2022/11/29 15:33:32;;;;;;;;;0.00;0.00;;;;;;;;5089180;27;45061;-91
2022/11/29 15:36:07;;;;;;;;;0.00;0.00;;;;;;;;5091329;27;45180;-91
2022/11/29 15:38:44;;;;;;;;;1.00;1.00;;;;;;;;5092680;27;45329;-90
2022/11/29 15:41:20;;;;;;;;;0.00;0.00;;;;;;;;5092644;27;45596;-90
2022/11/29 15:43:48;;;;;;;;;0.00;0.00;;;;;;;;5092740;27;45665;-90
2022/11/29 15:46:20;;;;;;;;;0.00;0.00;;;;;;;;5095817;27;45388;-90
2022/11/29 15:48:45;;;;;;;;;0.00;0.00;;;;;;;;5093182;27;45178;-90
2022/11/29 15:51:13;;;;;;;;;1.00;1.00;;;;;;;;5088771;27;46839;-90
2022/11/29 15:53:52;;;;;;;;;0.00;0.00;;;;;;;;5094706;27;45110;-90
2022/11/29 15:56:22;;;;;;;;;0.00;0.00;;;;;;;;5094095;27;44884;-90
2022/11/29 15:58:49;;;;;;;;;0.00;0.00;;;;;;;;5094060;27;45415;-88
2022/11/29 16:01:18;;;;;;;;;0.00;0.00;;;;;;;;5086960;27;47167;-88
2022/11/29 16:03:44;;;;;;;;;0.00;0.00;;;;;;;;5087565;27;45692;-87
2022/11/29 16:06:19;;;;;;;;;0.00;0.00;;;;;;;;5095983;27;45421;-88
2022/11/29 16:08:44;;;;;;;;;0.00;0.00;;;;;;;;5094272;27;45275;-88
2022/11/29 16:11:16;;;;;;;;;0.00;0.00;;;;;;;;5091878;27;47390;-89
2022/11/29 16:13:56;;;;;;;;;0.00;0.00;;;;;;;;5091826;27;45311;-88
2022/11/29 16:16:22;;;;;;;;;91.00;76.00;;;;;;;;5093259;27;45672;-88
2022/11/29 16:18:48;;;;;;;;;0.00;0.00;;;;;;;;5085801;27;45434;-87
2022/11/29 16:21:24;;;;;;;;;0.00;0.00;;;;;;;;5092069;27;45534;-87
2022/11/29 16:23:50;;;;;;;;;0.00;0.00;;;;;;;;5085361;27;45493;-87
2022/11/29 16:26:25;;;;;;;;;0.00;0.00;;;;;;;;5088899;27;45630;-88
2022/11/29 16:28:52;;;;;;;;;0.00;0.00;;;;;;;;5095830;27;45298;-90
2022/11/29 16:31:30;;;;;;;;;0.00;0.00;;;;;;;;5093154;27;46995;-90
2022/11/29 16:33:56;;;;;;;;;0.00;0.00;;;;;;;;5093400;27;45335;-90
2022/11/29 16:36:23;;;;;;;;;12.00;12.00;;;;;;;;5093704;27;45941;-89
2022/11/29 16:38:50;;;;;;;;;0.00;0.00;;;;;;;;5088150;27;45592;-90
2022/11/29 16:41:23;;;;;;;;;0.00;0.00;;;;;;;;5088611;27;47267;-90
2022/11/29 16:43:52;;;;;;;;;0.00;0.00;;;;;;;;5090013;27;45536;-89
2022/11/29 16:46:20;;;;;;;;;0.00;0.00;;;;;;;;5094776;27;47037;-90
2022/11/29 16:48:49;;;;;;;;;0.00;0.00;;;;;;;;5093780;27;45532;-91
2022/11/29 16:51:22;;;;;;;;;0.00;0.00;;;;;;;;5091436;27;46238;-90
2022/11/29 16:53:50;;;;;;;;;1.67;1.67;;;;;;;;5093713;27;45212;-90
2022/11/29 16:56:17;;;;;;;;;0.00;0.00;;;;;;;;5092729;27;45498;-91
2022/11/29 16:58:44;;;;;;;;;0.00;0.00;;;;;;;;5080315;27;45153;-90
2022/11/29 17:01:17;;;;;;;;;0.00;0.00;;;;;;;;5088888;27;47006;-89
2022/11/29 17:03:42;;;;;;;;;0.00;0.00;;;;;;;;5090496;27;45487;-89
2022/11/29 17:06:10;;;;;;;;;27.00;27.00;;;;;;;;5093665;27;45647;-89
2022/11/29 17:08:36;;;;;;;;;5.00;5.00;;;;;;;;5090458;27;45530;-89
2022/11/29 17:11:01;;;;;;;;;0.00;0.00;;;;;;;;5090626;27;48272;-90
2022/11/29 17:13:26;;;;;;;;;0.00;0.00;;;;;;;;5093225;27;45408;-90
2022/11/29 17:15:51;;;;;;;;;0.00;0.00;;;;;;;;5100010;27;45487;-89
2022/11/29 17:18:16;;;;;;;;;0.00;0.00;;;;;;;;5095120;27;45458;-90
2022/11/29 17:20:41;;;;;;;;;0.00;0.00;;;;;;;;5094076;27;47020;-90
2022/11/29 17:23:07;;;;;;;;;0.00;0.00;;;;;;;;5096036;27;45641;-89
2022/11/29 17:25:32;;;;;;;;;0.00;0.00;;;;;;;;5103408;27;45460;-88
2022/11/29 17:27:57;;;;;;;;;0.00;0.00;;;;;;;;5093522;27;45561;-88
2022/11/29 17:30:23;;;;;;;;;0.00;0.00;;;;;;;;5093773;27;46765;-89
2022/11/29 17:32:48;;;;;;;;;0.00;0.00;;;;;;;;5092204;27;45863;-88
2022/11/29 17:35:14;;;;;;;;;0.00;0.00;;;;;;;;5097767;27;45432;-88
2022/11/29 17:37:39;;;;;;;;;0.00;0.00;;;;;;;;5094257;27;45553;-88
2022/11/29 17:40:04;;;;;;;;;0.00;0.00;;;;;;;;5099369;27;46145;-89
2022/11/29 17:42:30;;;;;;;;;0.00;0.00;;;;;;;;5098188;27;45456;-89
2022/11/29 17:44:55;;;;;;;;;0.00;0.00;;;;;;;;5096932;27;45488;-88
2022/11/29 17:47:20;;;;;;;;;0.00;0.00;;;;;;;;5093163;27;45495;-90
2022/11/29 17:49:45;;;;;;;;;0.00;0.00;;;;;;;;5091920;27;48386;-90
2022/11/29 17:52:10;;;;;;;;;0.00;0.00;;;;;;;;5099104;27;45515;-89
2022/11/29 17:54:36;;;;;;;;;0.00;0.00;;;;;;;;5094227;27;45469;-90
2022/11/29 17:57:03;;;;;;;;;16.00;16.00;;;;;;;;5093318;27;45458;-90
2022/11/29 17:59:28;;;;;;;;;0.00;0.00;;;;;;;;5094435;27;45413;-89
2022/11/29 18:01:53;;;;;;;;;0.00;0.00;;;;;;;;5115206;27;45463;-89
2022/11/29 18:04:18;;;;;;;;;0.00;0.00;;;;;;;;5105536;27;45553;-91
2022/11/29 18:06:48;;;;;;;;;0.00;0.00;;;;;;;;5089301;27;45493;-90
2022/11/29 18:09:13;;;;;;;;;0.00;0.00;;;;;;;;5092097;27;45396;-91
2022/11/29 18:11:39;;;;;;;;;0.00;0.00;;;;;;;;5097267;27;45924;-92
2022/11/29 18:14:05;;;;;;;;;0.00;0.00;;;;;;;;5095555;27;46734;-92
2022/11/29 18:16:31;;;;;;;;;1.00;1.00;;;;;;;;5097460;27;45445;-94
2022/11/29 18:18:58;;;;;;;;;21.00;21.00;;;;;;;;5095564;27;48419;-94
2022/11/29 18:21:23;;;;;;;;;0.00;0.00;;;;;;;;5094901;27;45502;-92
2022/11/29 18:23:48;;;;;;;;;0.00;0.00;;;;;;;;5096812;27;45419;-93
2022/11/29 18:26:16;;;;;;;;;0.00;0.00;;;;;;;;5099872;27;45545;-94
2022/11/29 18:28:42;;;;;;;;;0.00;0.00;;;;;;;;5097473;27;47256;-93
2022/11/29 18:31:11;;;;;;;;;0.00;0.00;;;;;;;;5096035;27;45825;-93
2022/11/29 18:33:36;;;;;;;;;0.00;0.00;;;;;;;;5097263;27;45260;-94
2022/11/29 18:36:08;;;;;;;;;0.00;0.00;;;;;;;;5096257;27;45568;-93
2022/11/29 18:38:33;;;;;;;;;0.00;0.00;;;;;;;;5096793;27;48069;-94
2022/11/29 18:41:04;;;;;;;;;0.00;0.00;;;;;;;;5100176;27;45609;-94
2022/11/29 18:43:29;;;;;;;;;4.00;4.00;;;;;;;;5097049;27;45667;-94
2022/11/29 18:45:54;;;;;;;;;0.00;0.00;;;;;;;;5095710;27;45494;-92
2022/11/29 18:48:20;;;;;;;;;7.00;7.00;;;;;;;;5102014;27;48064;-94
2022/11/29 18:50:45;;;;;;;;;0.00;0.00;;;;;;;;5108550;27;45441;-95
2022/11/29 18:53:11;;;;;;;;;0.00;0.00;;;;;;;;5105179;27;45462;-94
2022/11/29 18:55:36;;;;;;;;;0.00;0.00;;;;;;;;5095907;27;45398;-93
2022/11/29 18:58:02;;;;;;;;;0.00;0.00;;;;;;;;5096279;27;47835;-93
2022/11/29 19:00:28;;;;;;;;;0.00;0.00;;;;;;;;5101951;27;45605;-93
2022/11/29 19:02:53;;;;;;;;;0.00;0.00;;;;;;;;5097633;27;45676;-90
2022/11/29 19:05:18;;;;;;;;;0.00;0.00;;;;;;;;5095252;27;45563;-94
2022/11/29 19:07:43;;;;;;;;;0.00;0.00;;;;;;;;5098761;27;48224;-93
2022/11/29 19:10:09;;;;;;;;;3.00;3.00;;;;;;;;5099047;27;45719;-92
2022/11/29 19:12:34;;;;;;;;;0.00;0.00;;;;;;;;5101543;27;45658;-90
2022/11/29 19:14:59;;;;;;;;;0.00;0.00;;;;;;;;5093383;27;45558;-90
2022/11/29 19:17:24;;;;;;;;;0.00;0.00;;;;;;;;5096244;27;47639;-89
2022/11/29 19:19:50;;;;;;;;;0.00;0.00;;;;;;;;5095125;27;45501;-88
2022/11/29 19:22:15;;;;;;;;;0.00;0.00;;;;;;;;5102265;27;45329;-86
2022/11/29 19:24:40;;;;;;;;;0.00;0.00;;;;;;;;5093937;27;45451;-87
2022/11/29 19:27:05;;;;;;;;;0.00;0.00;;;;;;;;5097515;27;46519;-86
2022/11/29 19:29:31;;;;;;;;;0.00;0.00;;;;;;;;5100306;27;45340;-90
2022/11/29 19:31:56;;;;;;;;;2.33;2.33;;;;;;;;5086156;27;45363;-87
2022/11/29 19:34:21;;;;;;;;;0.00;0.00;;;;;;;;5104275;27;45399;-86
2022/11/29 19:36:46;;;;;;;;;0.00;0.00;;;;;;;;5101695;27;47094;-89
2022/11/29 19:39:13;;;;;;;;;0.00;0.00;;;;;;;;5099305;27;45381;-84
2022/11/29 19:41:38;;;;;;;;;1.00;1.00;;;;;;;;5110074;27;45174;-88
2022/11/29 19:44:07;;;;;;;;;0.00;0.00;;;;;;;;5101143;27;45571;-93
2022/11/29 19:46:40;;;;;;;;;0.00;0.00;;;;;;;;5102433;27;46824;-89
2022/11/29 19:49:05;;;;;;;;;0.00;0.00;;;;;;;;5082900;27;45550;-86
2022/11/29 19:51:31;;;;;;;;;0.00;0.00;;;;;;;;5099657;27;45487;-88
2022/11/29 19:53:57;;;;;;;;;0.00;0.00;;;;;;;;5104747;27;45485;-89
2022/11/29 19:56:23;;;;;;;;;0.00;0.00;;;;;;;;5109790;27;46394;-90
2022/11/29 19:58:49;;;;;;;;;0.00;0.00;;;;;;;;5103098;27;45573;-89
2022/11/29 20:01:16;;;;;;;;;0.00;0.00;;;;;;;;5103592;27;45426;-88
2022/11/29 20:03:42;;;;;;;;;0.00;0.00;;;;;;;;5077586;27;45496;-88
2022/11/29 20:06:08;;;;;;;;;0.00;0.00;;;;;;;;5096917;27;45764;-88
2022/11/29 20:08:33;;;;;;;;;0.00;0.00;;;;;;;;5095051;27;45323;-86
2022/11/29 20:11:15;;;;;;;;;0.00;0.00;;;;;;;;5094111;27;45343;-85
2022/11/29 20:13:41;;;;;;;;;0.00;0.00;;;;;;;;5093982;27;45450;-88
2022/11/29 20:16:08;;;;;;;;;0.00;0.00;;;;;;;;5092474;27;46131;-87
2022/11/29 20:18:34;;;;;;;;;0.00;0.00;;;;;;;;5092178;27;45417;-88
2022/11/29 20:21:03;;;;;;;;;0.00;0.00;;;;;;;;5091668;27;45630;-87
2022/11/29 20:23:28;;;;;;;;;0.00;0.00;;;;;;;;5095158;27;45524;-87
2022/11/29 20:25:54;;;;;;;;;3.00;3.00;;;;;;;;5094590;27;46510;-86
2022/11/29 20:28:19;;;;;;;;;1.00;1.00;;;;;;;;5094466;27;45349;-86
2022/11/29 20:30:45;;;;;;;;;0.00;0.00;;;;;;;;5095079;27;45449;-86
2022/11/29 20:33:13;;;;;;;;;0.00;0.00;;;;;;;;5091519;27;45125;-87
2022/11/29 20:35:39;;;;;;;;;0.00;0.00;;;;;;;;5089372;27;46114;-86
2022/11/29 20:38:25;;;;;;;;;0.00;0.00;;;;;;;;5095614;27;45501;-85
2022/11/29 20:40:57;;;;;;;;;0.00;0.00;;;;;;;;5097986;27;45578;-89
2022/11/29 20:43:33;;;;;;;;;0.00;0.00;;;;;;;;5091604;27;45516;-85
2022/11/29 20:45:58;;;;;;;;;0.00;0.00;;;;;;;;5093614;27;46074;-84
2022/11/29 20:48:24;;;;;;;;;0.00;0.00;;;;;;;;5091448;27;45906;-85
2022/11/29 20:50:55;;;;;;;;;0.00;0.00;;;;;;;;5091662;27;45434;-85
2022/11/29 20:53:30;;;;;;;;;0.00;0.00;;;;;;;;5094802;27;45794;-85
2022/11/29 20:55:55;;;;;;;;;0.00;0.00;;;;;;;;5090744;27;46780;-90
2022/11/29 20:58:20;;;;;;;;;0.00;0.00;;;;;;;;5095174;27;45521;-86
2022/11/29 21:00:46;;;;;;;;;0.00;0.00;;;;;;;;5091708;27;45352;-86
2022/11/29 21:03:12;;;;;;;;;3.00;3.00;;;;;;;;5092417;27;45363;-87
2022/11/29 21:05:37;;;;;;;;;5.33;5.33;;;;;;;;5081383;27;48259;-88
2022/11/29 21:08:02;;;;;;;;;0.00;0.00;;;;;;;;5093470;27;45414;-90
2022/11/29 21:10:27;;;;;;;;;0.00;0.00;;;;;;;;5094045;27;45378;-89
2022/11/29 21:12:53;;;;;;;;;0.00;0.00;;;;;;;;5085494;27;45582;-90